地図

経路データ

SID SEASON NUMBER BASIN SUBBASIN NAME ISO_TIME NATURE LAT LON WMO_WIND WMO_PRES WMO_AGENCY TRACK_TYPE DIST2LAND LANDFALL IFLAG USA_AGENCY USA_ATCF_ID USA_LAT USA_LON USA_RECORD USA_STATUS USA_WIND USA_PRES USA_SSHS USA_R34_NE USA_R34_SE USA_R34_SW USA_R34_NW USA_R50_NE USA_R50_SE USA_R50_SW USA_R50_NW USA_R64_NE USA_R64_SE USA_R64_SW USA_R64_NW USA_POCI USA_ROCI USA_RMW USA_EYE TOKYO_LAT TOKYO_LON TOKYO_GRADE TOKYO_WIND TOKYO_PRES TOKYO_R50_DIR TOKYO_R50_LONG TOKYO_R50_SHORT TOKYO_R30_DIR TOKYO_R30_LONG TOKYO_R30_SHORT TOKYO_LAND CMA_LAT CMA_LON CMA_CAT CMA_WIND CMA_PRES HKO_LAT HKO_LON HKO_CAT HKO_WIND HKO_PRES NEWDELHI_LAT NEWDELHI_LON NEWDELHI_GRADE NEWDELHI_WIND NEWDELHI_PRES NEWDELHI_CI NEWDELHI_DP NEWDELHI_POCI REUNION_LAT REUNION_LON REUNION_TYPE REUNION_WIND REUNION_PRES REUNION_TNUM REUNION_CI REUNION_RMW REUNION_R34_NE REUNION_R34_SE REUNION_R34_SW REUNION_R34_NW REUNION_R50_NE REUNION_R50_SE REUNION_R50_SW REUNION_R50_NW REUNION_R64_NE REUNION_R64_SE REUNION_R64_SW REUNION_R64_NW BOM_LAT BOM_LON BOM_TYPE BOM_WIND BOM_PRES BOM_TNUM BOM_CI BOM_RMW BOM_R34_NE BOM_R34_SE BOM_R34_SW BOM_R34_NW BOM_R50_NE BOM_R50_SE BOM_R50_SW BOM_R50_NW BOM_R64_NE BOM_R64_SE BOM_R64_SW BOM_R64_NW BOM_ROCI BOM_POCI BOM_EYE BOM_POS_METHOD BOM_PRES_METHOD NADI_LAT NADI_LON NADI_CAT NADI_WIND NADI_PRES WELLINGTON_LAT WELLINGTON_LON WELLINGTON_WIND WELLINGTON_PRES DS824_LAT DS824_LON DS824_STAGE DS824_WIND DS824_PRES TD9636_LAT TD9636_LON TD9636_STAGE TD9636_WIND TD9636_PRES TD9635_LAT TD9635_LON TD9635_WIND TD9635_PRES TD9635_ROCI NEUMANN_LAT NEUMANN_LON NEUMANN_CLASS NEUMANN_WIND NEUMANN_PRES MLC_LAT MLC_LON MLC_CLASS MLC_WIND MLC_PRES USA_GUST BOM_GUST BOM_GUST_PER REUNION_GUST REUNION_GUST_PER USA_SEAHGT USA_SEARAD_NE USA_SEARAD_SE USA_SEARAD_SW USA_SEARAD_NW STORM_SPEED STORM_DIR
1907232N21128 1907 40 WP MM NOT_NAMED 1907-08-19 16:00:00 NR 20.5000 128.100 main 651 651 __________O___ -1 20.5000 128.100 7 3 53
1907232N21128 1907 40 WP MM NOT_NAMED 1907-08-19 18:00:00 NR 20.5530 128.173 main 665 665 __________P___ -1 20.5530 128.173 7 3 51
1907232N21128 1907 40 WP MM NOT_NAMED 1907-08-19 21:00:00 NR 20.6439 128.293 main 675 675 __________P___ -1 20.6439 128.293 7 3 49
1907232N21128 1907 40 WP MM NOT_NAMED 1907-08-20 00:00:00 NR 20.7640 128.439 main 692 692 __________P___ -1 20.7640 128.439 7 4 47
1907232N21128 1907 40 WP MM NOT_NAMED 1907-08-20 03:00:00 NR 20.9309 128.626 main 716 716 __________P___ -1 20.9309 128.626 7 5 46
1907232N21128 1907 40 WP MM NOT_NAMED 1907-08-20 04:00:00 NR 21.0000 128.700 main 730 730 __________O___ -1 21.0000 128.700 7 6 45
1907232N21128 1907 40 WP MM NOT_NAMED 1907-08-20 06:00:00 NR 21.1602 128.868 main 758 758 __________P___ -1 21.1602 128.868 7 7 44
1907232N21128 1907 40 WP MM NOT_NAMED 1907-08-20 09:00:00 NR 21.4445 129.158 main 795 800 __________P___ -1 21.4445 129.158 7 8 43
1907232N21128 1907 40 WP MM NOT_NAMED 1907-08-20 12:00:00 NR 21.7622 129.475 main 833 833 __________P___ -1 21.7622 129.475 7 9 42
1907232N21128 1907 40 WP MM NOT_NAMED 1907-08-20 15:00:00 NR 22.0914 129.796 main 849 849 __________P___ -1 22.0914 129.796 7 9 42
1907232N21128 1907 40 WP MM NOT_NAMED 1907-08-20 16:00:00 NR 22.2000 129.900 main 855 852 __________O___ -1 22.2000 129.900 7 8 41
1907232N21128 1907 40 WP MM NOT_NAMED 1907-08-20 18:00:00 NR 22.4025 130.092 main 868 864 __________P___ -1 22.4025 130.092 7 8 41
1907232N21128 1907 40 WP MM NOT_NAMED 1907-08-20 21:00:00 NR 22.7064 130.373 main 888 885 __________P___ -1 22.7064 130.373 7 8 40
1907232N21128 1907 40 WP MM NOT_NAMED 1907-08-21 00:00:00 NR 23.0077 130.647 main 893 860 __________P___ -1 23.0077 130.647 7 8 40
1907232N21128 1907 40 WP MM NOT_NAMED 1907-08-21 03:00:00 NR 23.3033 130.913 main 860 849 __________P___ -1 23.3033 130.913 7 8 39
1907232N21128 1907 40 WP MM NOT_NAMED 1907-08-21 04:00:00 NR 23.4000 131.000 main 849 827 __________O___ -1 23.4000 131.000 7 7 40
1907232N21128 1907 40 WP MM NOT_NAMED 1907-08-21 06:00:00 NR 23.5889 131.173 main 827 795 __________P___ -1 23.5889 131.173 7 7 40
1907232N21128 1907 40 WP MM NOT_NAMED 1907-08-21 09:00:00 NR 23.8661 131.425 main 795 775 __________P___ -1 23.8661 131.425 7 7 40
1907232N21128 1907 40 WP MM NOT_NAMED 1907-08-21 12:00:00 NR 24.1386 131.673 main 776 746 __________P___ -1 24.1386 131.673 7 7 40
1907232N21128 1907 40 WP MM NOT_NAMED 1907-08-21 15:00:00 NR 24.4095 131.918 main 746 736 __________P___ -1 24.4095 131.918 7 7 39
1907232N21128 1907 40 WP MM NOT_NAMED 1907-08-21 16:00:00 NR 24.5000 132.000 main 736 718 __________O___ -1 24.5000 132.000 3 7 41
1907232N21128 1907 40 WP MM NOT_NAMED 1907-08-21 18:00:00 NR 24.6622 132.160 main 718 701 __________P___ -1 24.6622 132.160 3 7 42
1907232N21128 1907 40 WP MM NOT_NAMED 1907-08-21 21:00:00 NR 24.9050 132.398 main 701 673 __________P___ -1 24.9050 132.398 3 7 41
1907232N21128 1907 40 WP MM NOT_NAMED 1907-08-22 00:00:00 NR 25.1698 132.645 main 673 650 __________P___ -1 25.1698 132.645 3 7 39
1907232N21128 1907 40 WP MM NOT_NAMED 1907-08-22 03:00:00 NR 25.4814 132.907 main 650 643 __________P___ -1 25.4814 132.907 3 8 37
1907232N21128 1907 40 WP MM NOT_NAMED 1907-08-22 04:00:00 NR 25.6000 133.000 main 643 619 __________O___ -1 25.6000 133.000 4 9 35
1907232N21128 1907 40 WP MM NOT_NAMED 1907-08-22 06:00:00 NR 25.8685 133.207 main 619 591 __________P___ -1 25.8685 133.207 4 10 34
1907232N21128 1907 40 WP MM NOT_NAMED 1907-08-22 09:00:00 NR 26.3216 133.537 main 591 557 __________P___ -1 26.3216 133.537 4 11 32
1907232N21128 1907 40 WP MM NOT_NAMED 1907-08-22 12:00:00 NR 26.8156 133.874 main 562 531 __________P___ -1 26.8156 133.874 4 12 30
1907232N21128 1907 40 WP MM NOT_NAMED 1907-08-22 15:00:00 NR 27.3286 134.198 main 531 517 __________P___ -1 27.3286 134.198 4 12 29
1907232N21128 1907 40 WP MM NOT_NAMED 1907-08-22 16:00:00 NR 27.5000 134.300 main 517 495 __________O___ -1 27.5000 134.300 4 12 27
1907232N21128 1907 40 WP MM NOT_NAMED 1907-08-22 18:00:00 NR 27.8400 134.492 main 500 469 __________P___ -1 27.8400 134.492 4 11 25
1907232N21128 1907 40 WP MM NOT_NAMED 1907-08-22 21:00:00 NR 28.3434 134.755 main 476 451 __________P___ -1 28.3434 134.755 4 11 24
1907232N21128 1907 40 WP MM NOT_NAMED 1907-08-23 00:00:00 NR 28.8412 134.995 main 451 431 __________P___ -1 28.8412 134.995 4 11 23
1907232N21128 1907 40 WP MM NOT_NAMED 1907-08-23 03:00:00 NR 29.3356 135.224 main 432 418 __________P___ -1 29.3356 135.224 4 11 22
1907232N21128 1907 40 WP MM NOT_NAMED 1907-08-23 04:00:00 NR 29.5000 135.300 main 418 __________O___ -1 29.5000 135.300 4 11 22

デジタル台風データ・検索

IBTrACS Databaseについて

本データベースは、米国NOAAが公開する1842年以降の世界の熱帯低気圧のベストトラックデータアーカイブInternational Best Track Archive for Climate Stewardship (IBTrACS)を、ウェブで閲覧しやすい形式に変換したものです。

最終更新日:2021-10-21